sensor_id;sensor_type;location;lat;lon;timestamp;temperature;humidity
39665;DHT22;26679;50.872;4.332;2022-11-27T00:00:33;8.70;99.90
39665;DHT22;26679;50.872;4.332;2022-11-27T00:02:59;8.80;99.90
39665;DHT22;26679;50.872;4.332;2022-11-27T00:05:24;8.80;99.90
39665;DHT22;26679;50.872;4.332;2022-11-27T00:07:50;8.70;99.90
39665;DHT22;26679;50.872;4.332;2022-11-27T00:10:15;8.60;99.90
39665;DHT22;26679;50.872;4.332;2022-11-27T00:12:41;8.60;99.90
39665;DHT22;26679;50.872;4.332;2022-11-27T00:15:06;8.70;99.90
39665;DHT22;26679;50.872;4.332;2022-11-27T00:17:32;8.70;99.90
39665;DHT22;26679;50.872;4.332;2022-11-27T00:19:57;8.60;99.90
39665;DHT22;26679;50.872;4.332;2022-11-27T00:22:23;8.60;99.90
39665;DHT22;26679;50.872;4.332;2022-11-27T00:24:50;8.40;99.90
39665;DHT22;26679;50.872;4.332;2022-11-27T00:27:16;8.50;99.90
39665;DHT22;26679;50.872;4.332;2022-11-27T00:29:41;8.50;99.90
39665;DHT22;26679;50.872;4.332;2022-11-27T00:32:07;8.60;99.90
39665;DHT22;26679;50.872;4.332;2022-11-27T00:34:32;8.50;99.90
39665;DHT22;26679;50.872;4.332;2022-11-27T00:36:58;8.50;99.90
39665;DHT22;26679;50.872;4.332;2022-11-27T00:39:24;8.60;99.90
39665;DHT22;26679;50.872;4.332;2022-11-27T00:41:49;8.80;99.90
39665;DHT22;26679;50.872;4.332;2022-11-27T00:44:15;8.70;99.90
39665;DHT22;26679;50.872;4.332;2022-11-27T00:46:40;9.70;99.90
39665;DHT22;26679;50.872;4.332;2022-11-27T00:49:07;9.40;99.90
39665;DHT22;26679;50.872;4.332;2022-11-27T00:51:32;8.50;99.90
39665;DHT22;26679;50.872;4.332;2022-11-27T00:53:58;8.60;99.90
39665;DHT22;26679;50.872;4.332;2022-11-27T00:56:24;8.60;99.90
39665;DHT22;26679;50.872;4.332;2022-11-27T00:58:51;8.70;99.90
39665;DHT22;26679;50.872;4.332;2022-11-27T01:01:18;8.60;99.90
39665;DHT22;26679;50.872;4.332;2022-11-27T01:03:44;8.50;99.90
39665;DHT22;26679;50.872;4.332;2022-11-27T01:06:10;8.60;99.90
39665;DHT22;26679;50.872;4.332;2022-11-27T01:08:35;8.70;99.90
39665;DHT22;26679;50.872;4.332;2022-11-27T01:11:01;8.60;99.90
39665;DHT22;26679;50.872;4.332;2022-11-27T01:13:28;9.00;99.90
39665;DHT22;26679;50.872;4.332;2022-11-27T01:15:59;8.70;99.90
39665;DHT22;26679;50.872;4.332;2022-11-27T01:18:25;8.60;99.90
39665;DHT22;26679;50.872;4.332;2022-11-27T01:20:53;8.70;99.90
39665;DHT22;26679;50.872;4.332;2022-11-27T01:23:19;8.60;99.90
39665;DHT22;26679;50.872;4.332;2022-11-27T01:25:45;8.80;99.90
39665;DHT22;26679;50.872;4.332;2022-11-27T01:28:10;8.50;99.90
39665;DHT22;26679;50.872;4.332;2022-11-27T01:30:36;8.40;99.90
39665;DHT22;26679;50.872;4.332;2022-11-27T01:33:02;8.70;99.90
39665;DHT22;26679;50.872;4.332;2022-11-27T01:35:27;8.60;99.90
39665;DHT22;26679;50.872;4.332;2022-11-27T01:37:53;8.60;99.90
39665;DHT22;26679;50.872;4.332;2022-11-27T01:40:18;8.50;99.90
39665;DHT22;26679;50.872;4.332;2022-11-27T01:42:44;8.30;99.90
39665;DHT22;26679;50.872;4.332;2022-11-27T01:45:09;8.40;99.90
39665;DHT22;26679;50.872;4.332;2022-11-27T01:47:41;8.30;99.90
39665;DHT22;26679;50.872;4.332;2022-11-27T01:50:09;8.50;99.90
39665;DHT22;26679;50.872;4.332;2022-11-27T01:52:36;8.40;99.90
39665;DHT22;26679;50.872;4.332;2022-11-27T01:55:04;8.50;99.90
39665;DHT22;26679;50.872;4.332;2022-11-27T01:57:32;9.00;99.90
39665;DHT22;26679;50.872;4.332;2022-11-27T02:00:00;8.70;99.90
39665;DHT22;26679;50.872;4.332;2022-11-27T02:02:26;8.80;99.90
39665;DHT22;26679;50.872;4.332;2022-11-27T02:04:52;8.70;99.90
39665;DHT22;26679;50.872;4.332;2022-11-27T02:07:17;8.80;99.90
39665;DHT22;26679;50.872;4.332;2022-11-27T02:09:43;8.60;99.90
39665;DHT22;26679;50.872;4.332;2022-11-27T02:17:24;8.70;99.90
39665;DHT22;26679;50.872;4.332;2022-11-27T02:25:11;8.80;99.90
39665;DHT22;26679;50.872;4.332;2022-11-27T02:30:04;8.70;99.90
39665;DHT22;26679;50.872;4.332;2022-11-27T02:37:45;8.30;99.90
39665;DHT22;26679;50.872;4.332;2022-11-27T02:45:12;8.50;99.90
39665;DHT22;26679;50.872;4.332;2022-11-27T02:47:39;8.60;99.90
39665;DHT22;26679;50.872;4.332;2022-11-27T02:50:06;8.70;99.90
39665;DHT22;26679;50.872;4.332;2022-11-27T02:52:32;8.60;99.90
39665;DHT22;26679;50.872;4.332;2022-11-27T02:54:59;8.70;99.90
39665;DHT22;26679;50.872;4.332;2022-11-27T02:57:27;8.70;99.90
39665;DHT22;26679;50.872;4.332;2022-11-27T02:59:54;9.20;99.90
39665;DHT22;26679;50.872;4.332;2022-11-27T03:02:22;8.20;99.90
39665;DHT22;26679;50.872;4.332;2022-11-27T03:04:49;8.60;99.90
39665;DHT22;26679;50.872;4.332;2022-11-27T03:07:25;8.70;99.90
39665;DHT22;26679;50.872;4.332;2022-11-27T03:09:55;8.70;99.90
39665;DHT22;26679;50.872;4.332;2022-11-27T03:12:22;8.80;99.90
39665;DHT22;26679;50.872;4.332;2022-11-27T03:14:48;8.80;99.90
39665;DHT22;26679;50.872;4.332;2022-11-27T03:19:54;8.80;99.90
39665;DHT22;26679;50.872;4.332;2022-11-27T03:22:21;8.80;99.90
39665;DHT22;26679;50.872;4.332;2022-11-27T03:24:47;8.90;99.90
39665;DHT22;26679;50.872;4.332;2022-11-27T03:27:15;8.80;99.90
39665;DHT22;26679;50.872;4.332;2022-11-27T03:32:10;8.70;99.90
39665;DHT22;26679;50.872;4.332;2022-11-27T03:34:36;8.70;99.90
39665;DHT22;26679;50.872;4.332;2022-11-27T03:37:03;8.70;99.90
39665;DHT22;26679;50.872;4.332;2022-11-27T03:39:28;8.80;99.90
39665;DHT22;26679;50.872;4.332;2022-11-27T03:44:34;8.70;99.90
39665;DHT22;26679;50.872;4.332;2022-11-27T03:57:27;8.60;99.90
39665;DHT22;26679;50.872;4.332;2022-11-27T03:59:54;8.60;99.90
39665;DHT22;26679;50.872;4.332;2022-11-27T04:02:28;8.70;99.90
39665;DHT22;26679;50.872;4.332;2022-11-27T04:04:55;8.70;99.90
39665;DHT22;26679;50.872;4.332;2022-11-27T04:07:21;8.70;99.90
39665;DHT22;26679;50.872;4.332;2022-11-27T04:09:46;9.30;99.90
39665;DHT22;26679;50.872;4.332;2022-11-27T04:12:12;8.40;99.90
39665;DHT22;26679;50.872;4.332;2022-11-27T04:14:37;8.50;99.90
39665;DHT22;26679;50.872;4.332;2022-11-27T04:17:03;8.50;99.90
39665;DHT22;26679;50.872;4.332;2022-11-27T04:19:28;8.90;99.90
39665;DHT22;26679;50.872;4.332;2022-11-27T04:21:54;8.70;99.90
39665;DHT22;26679;50.872;4.332;2022-11-27T04:24:20;8.80;99.90
39665;DHT22;26679;50.872;4.332;2022-11-27T04:26:45;8.90;99.90
39665;DHT22;26679;50.872;4.332;2022-11-27T04:29:11;8.80;99.90
39665;DHT22;26679;50.872;4.332;2022-11-27T04:31:39;8.50;99.90
39665;DHT22;26679;50.872;4.332;2022-11-27T04:34:05;8.30;99.90
39665;DHT22;26679;50.872;4.332;2022-11-27T04:36:30;8.40;99.90
39665;DHT22;26679;50.872;4.332;2022-11-27T04:38:56;8.30;99.90
39665;DHT22;26679;50.872;4.332;2022-11-27T04:41:21;8.20;99.90
39665;DHT22;26679;50.872;4.332;2022-11-27T04:43:47;8.30;99.90
39665;DHT22;26679;50.872;4.332;2022-11-27T04:46:12;8.20;99.90
39665;DHT22;26679;50.872;4.332;2022-11-27T04:51:07;8.10;99.90
39665;DHT22;26679;50.872;4.332;2022-11-27T04:53:32;8.10;99.90
39665;DHT22;26679;50.872;4.332;2022-11-27T04:55:58;8.10;99.90
39665;DHT22;26679;50.872;4.332;2022-11-27T05:00:54;8.00;99.90
39665;DHT22;26679;50.872;4.332;2022-11-27T05:03:20;8.00;99.90
39665;DHT22;26679;50.872;4.332;2022-11-27T05:05:52;7.80;99.90
39665;DHT22;26679;50.872;4.332;2022-11-27T05:08:18;7.90;99.90
39665;DHT22;26679;50.872;4.332;2022-11-27T05:10:43;7.90;99.90
39665;DHT22;26679;50.872;4.332;2022-11-27T05:13:11;7.80;99.90
39665;DHT22;26679;50.872;4.332;2022-11-27T05:15:36;7.80;99.90
39665;DHT22;26679;50.872;4.332;2022-11-27T05:18:02;7.80;99.90
39665;DHT22;26679;50.872;4.332;2022-11-27T05:20:27;7.60;99.90
39665;DHT22;26679;50.872;4.332;2022-11-27T05:22:53;7.60;99.90
39665;DHT22;26679;50.872;4.332;2022-11-27T05:25:18;7.60;99.90
39665;DHT22;26679;50.872;4.332;2022-11-27T05:27:43;7.70;99.90
39665;DHT22;26679;50.872;4.332;2022-11-27T05:30:09;8.20;99.90
39665;DHT22;26679;50.872;4.332;2022-11-27T05:32:35;7.60;99.90
39665;DHT22;26679;50.872;4.332;2022-11-27T05:35:00;7.50;99.90
39665;DHT22;26679;50.872;4.332;2022-11-27T05:37:26;7.50;99.90
39665;DHT22;26679;50.872;4.332;2022-11-27T05:39:51;7.50;99.90
39665;DHT22;26679;50.872;4.332;2022-11-27T05:42:17;7.40;99.90
39665;DHT22;26679;50.872;4.332;2022-11-27T05:44:42;7.40;99.90
39665;DHT22;26679;50.872;4.332;2022-11-27T05:47:08;7.30;99.90
39665;DHT22;26679;50.872;4.332;2022-11-27T05:49:33;7.40;99.90
39665;DHT22;26679;50.872;4.332;2022-11-27T05:51:59;7.40;99.90
39665;DHT22;26679;50.872;4.332;2022-11-27T05:54:25;7.30;99.90
39665;DHT22;26679;50.872;4.332;2022-11-27T05:56:50;7.30;99.90
39665;DHT22;26679;50.872;4.332;2022-11-27T05:59:16;7.30;99.90
39665;DHT22;26679;50.872;4.332;2022-11-27T06:01:41;7.30;99.90
39665;DHT22;26679;50.872;4.332;2022-11-27T06:04:07;7.40;99.90
39665;DHT22;26679;50.872;4.332;2022-11-27T06:06:32;7.30;99.90
39665;DHT22;26679;50.872;4.332;2022-11-27T06:08:58;7.30;99.90
39665;DHT22;26679;50.872;4.332;2022-11-27T06:11:24;7.30;99.90
39665;DHT22;26679;50.872;4.332;2022-11-27T06:13:50;7.30;99.90
39665;DHT22;26679;50.872;4.332;2022-11-27T06:16:17;7.50;99.90
39665;DHT22;26679;50.872;4.332;2022-11-27T06:18:43;7.30;99.90
39665;DHT22;26679;50.872;4.332;2022-11-27T06:21:09;8.10;99.90
39665;DHT22;26679;50.872;4.332;2022-11-27T06:23:36;7.40;99.90
39665;DHT22;26679;50.872;4.332;2022-11-27T06:26:08;7.40;99.90
39665;DHT22;26679;50.872;4.332;2022-11-27T06:28:34;7.50;99.90
39665;DHT22;26679;50.872;4.332;2022-11-27T06:31:03;7.60;99.90
39665;DHT22;26679;50.872;4.332;2022-11-27T06:33:29;7.60;99.90
39665;DHT22;26679;50.872;4.332;2022-11-27T06:35:54;8.50;99.90
39665;DHT22;26679;50.872;4.332;2022-11-27T06:38:20;7.80;99.90
39665;DHT22;26679;50.872;4.332;2022-11-27T06:40:45;7.80;99.90
39665;DHT22;26679;50.872;4.332;2022-11-27T06:43:11;7.70;99.90
39665;DHT22;26679;50.872;4.332;2022-11-27T06:45:36;7.80;99.90
39665;DHT22;26679;50.872;4.332;2022-11-27T06:48:02;7.80;99.90
39665;DHT22;26679;50.872;4.332;2022-11-27T06:50:28;7.90;99.90
39665;DHT22;26679;50.872;4.332;2022-11-27T06:52:53;7.80;99.90
39665;DHT22;26679;50.872;4.332;2022-11-27T06:55:19;7.90;99.90
39665;DHT22;26679;50.872;4.332;2022-11-27T06:57:45;8.20;99.90
39665;DHT22;26679;50.872;4.332;2022-11-27T07:00:10;8.10;99.90
39665;DHT22;26679;50.872;4.332;2022-11-27T07:02:36;8.10;99.90
39665;DHT22;26679;50.872;4.332;2022-11-27T07:05:02;8.00;99.90
39665;DHT22;26679;50.872;4.332;2022-11-27T07:07:28;7.00;99.90
39665;DHT22;26679;50.872;4.332;2022-11-27T07:09:53;8.80;99.90
39665;DHT22;26679;50.872;4.332;2022-11-27T07:12:19;8.20;99.90
39665;DHT22;26679;50.872;4.332;2022-11-27T07:14:45;8.20;99.90
39665;DHT22;26679;50.872;4.332;2022-11-27T07:17:10;8.10;99.90
39665;DHT22;26679;50.872;4.332;2022-11-27T07:19:36;8.20;99.90
39665;DHT22;26679;50.872;4.332;2022-11-27T07:22:02;8.20;99.90
39665;DHT22;26679;50.872;4.332;2022-11-27T07:24:28;8.20;99.90
39665;DHT22;26679;50.872;4.332;2022-11-27T07:26:54;8.20;99.90
39665;DHT22;26679;50.872;4.332;2022-11-27T07:29:20;8.10;99.90
39665;DHT22;26679;50.872;4.332;2022-11-27T07:31:45;8.90;99.90
39665;DHT22;26679;50.872;4.332;2022-11-27T07:34:11;6.50;99.90
39665;DHT22;26679;50.872;4.332;2022-11-27T07:36:36;8.10;99.90
39665;DHT22;26679;50.872;4.332;2022-11-27T07:39:02;9.20;99.90
39665;DHT22;26679;50.872;4.332;2022-11-27T07:41:27;8.10;99.90
39665;DHT22;26679;50.872;4.332;2022-11-27T07:43:53;8.90;99.90
39665;DHT22;26679;50.872;4.332;2022-11-27T07:46:20;8.20;99.90
39665;DHT22;26679;50.872;4.332;2022-11-27T07:48:46;8.10;99.90
39665;DHT22;26679;50.872;4.332;2022-11-27T07:56:15;8.10;99.90
39665;DHT22;26679;50.872;4.332;2022-11-27T07:58:41;7.90;99.90
39665;DHT22;26679;50.872;4.332;2022-11-27T08:01:08;7.80;99.90
39665;DHT22;26679;50.872;4.332;2022-11-27T08:14:06;7.80;99.90
39665;DHT22;26679;50.872;4.332;2022-11-27T08:16:33;7.70;99.90
39665;DHT22;26679;50.872;4.332;2022-11-27T08:18:59;9.00;99.90
39665;DHT22;26679;50.872;4.332;2022-11-27T08:23:56;7.70;99.90
39665;DHT22;26679;50.872;4.332;2022-11-27T08:26:22;8.10;99.90
39665;DHT22;26679;50.872;4.332;2022-11-27T08:28:50;7.80;99.90
39665;DHT22;26679;50.872;4.332;2022-11-27T08:31:16;7.80;99.90
39665;DHT22;26679;50.872;4.332;2022-11-27T08:33:42;7.80;99.90
39665;DHT22;26679;50.872;4.332;2022-11-27T08:36:08;7.70;99.90
39665;DHT22;26679;50.872;4.332;2022-11-27T08:38:33;7.70;99.90
39665;DHT22;26679;50.872;4.332;2022-11-27T08:43:29;7.70;99.90
39665;DHT22;26679;50.872;4.332;2022-11-27T08:45:55;7.80;99.90
39665;DHT22;26679;50.872;4.332;2022-11-27T08:53:34;7.90;99.90
39665;DHT22;26679;50.872;4.332;2022-11-27T08:58:38;7.80;99.90
39665;DHT22;26679;50.872;4.332;2022-11-27T09:01:06;8.10;99.90
39665;DHT22;26679;50.872;4.332;2022-11-27T09:03:37;7.40;99.90
39665;DHT22;26679;50.872;4.332;2022-11-27T09:06:10;8.80;99.90
39665;DHT22;26679;50.872;4.332;2022-11-27T09:08:36;7.90;99.90
39665;DHT22;26679;50.872;4.332;2022-11-27T09:11:04;8.40;99.90
39665;DHT22;26679;50.872;4.332;2022-11-27T09:13:30;7.80;99.90
39665;DHT22;26679;50.872;4.332;2022-11-27T09:15:56;8.00;99.90
39665;DHT22;26679;50.872;4.332;2022-11-27T09:18:22;7.80;99.90
39665;DHT22;26679;50.872;4.332;2022-11-27T09:20:54;7.70;99.90
39665;DHT22;26679;50.872;4.332;2022-11-27T09:23:20;7.60;99.90
39665;DHT22;26679;50.872;4.332;2022-11-27T09:25:45;8.00;99.90
39665;DHT22;26679;50.872;4.332;2022-11-27T09:28:10;7.80;99.90
39665;DHT22;26679;50.872;4.332;2022-11-27T09:30:36;7.70;99.90
39665;DHT22;26679;50.872;4.332;2022-11-27T09:33:01;7.70;99.90
39665;DHT22;26679;50.872;4.332;2022-11-27T09:35:27;7.90;99.90
39665;DHT22;26679;50.872;4.332;2022-11-27T09:37:53;7.60;99.90
39665;DHT22;26679;50.872;4.332;2022-11-27T09:40:18;7.60;99.90
39665;DHT22;26679;50.872;4.332;2022-11-27T09:45:20;7.50;99.90
39665;DHT22;26679;50.872;4.332;2022-11-27T09:50:26;7.50;99.90
39665;DHT22;26679;50.872;4.332;2022-11-27T09:53:00;7.60;99.90
39665;DHT22;26679;50.872;4.332;2022-11-27T09:55:35;7.70;99.90
39665;DHT22;26679;50.872;4.332;2022-11-27T09:58:05;7.70;99.90
39665;DHT22;26679;50.872;4.332;2022-11-27T10:00:31;7.70;99.90
39665;DHT22;26679;50.872;4.332;2022-11-27T10:02:57;7.60;99.90
39665;DHT22;26679;50.872;4.332;2022-11-27T10:08:08;7.70;99.90
39665;DHT22;26679;50.872;4.332;2022-11-27T10:13:20;7.80;99.90
39665;DHT22;26679;50.872;4.332;2022-11-27T10:15:59;7.80;99.90
39665;DHT22;26679;50.872;4.332;2022-11-27T10:18:39;7.80;99.90
39665;DHT22;26679;50.872;4.332;2022-11-27T10:21:08;7.70;99.90
39665;DHT22;26679;50.872;4.332;2022-11-27T10:26:13;7.70;99.90
39665;DHT22;26679;50.872;4.332;2022-11-27T10:33:46;7.80;99.90
39665;DHT22;26679;50.872;4.332;2022-11-27T10:36:14;9.10;99.90
39665;DHT22;26679;50.872;4.332;2022-11-27T10:41:18;7.80;99.90
39665;DHT22;26679;50.872;4.332;2022-11-27T10:43:46;7.80;99.90
39665;DHT22;26679;50.872;4.332;2022-11-27T10:46:17;7.70;99.90
39665;DHT22;26679;50.872;4.332;2022-11-27T11:06:52;8.60;99.90
39665;DHT22;26679;50.872;4.332;2022-11-27T11:09:24;9.40;99.90
39665;DHT22;26679;50.872;4.332;2022-11-27T12:24:20;9.70;99.90
39665;DHT22;26679;50.872;4.332;2022-11-27T12:32:03;9.50;99.90
39665;DHT22;26679;50.872;4.332;2022-11-27T12:39:58;9.70;99.90
39665;DHT22;26679;50.872;4.332;2022-11-27T12:42:29;9.40;99.90
39665;DHT22;26679;50.872;4.332;2022-11-27T12:55:30;8.80;99.90
39665;DHT22;26679;50.872;4.332;2022-11-27T12:58:04;9.40;99.90
39665;DHT22;26679;50.872;4.332;2022-11-27T13:00:31;8.80;99.90
39665;DHT22;26679;50.872;4.332;2022-11-27T13:05:25;8.70;99.90
39665;DHT22;26679;50.872;4.332;2022-11-27T13:07:57;8.80;99.90
39665;DHT22;26679;50.872;4.332;2022-11-27T13:10:47;8.90;99.90
39665;DHT22;26679;50.872;4.332;2022-11-27T13:13:12;8.90;99.90
39665;DHT22;26679;50.872;4.332;2022-11-27T13:15:40;9.40;99.90
39665;DHT22;26679;50.872;4.332;2022-11-27T13:18:12;9.10;99.90
39665;DHT22;26679;50.872;4.332;2022-11-27T13:20:40;9.30;99.90
39665;DHT22;26679;50.872;4.332;2022-11-27T13:23:06;9.20;99.90
39665;DHT22;26679;50.872;4.332;2022-11-27T13:25:32;9.10;99.90
39665;DHT22;26679;50.872;4.332;2022-11-27T13:27:59;9.00;99.90
39665;DHT22;26679;50.872;4.332;2022-11-27T13:30:26;9.10;99.90
39665;DHT22;26679;50.872;4.332;2022-11-27T13:32:53;9.10;99.90
39665;DHT22;26679;50.872;4.332;2022-11-27T13:35:21;9.00;99.90
39665;DHT22;26679;50.872;4.332;2022-11-27T13:37:47;9.00;99.90
39665;DHT22;26679;50.872;4.332;2022-11-27T13:42:43;8.40;99.90
39665;DHT22;26679;50.872;4.332;2022-11-27T13:47:45;9.20;99.90
39665;DHT22;26679;50.872;4.332;2022-11-27T13:50:12;10.60;99.90
39665;DHT22;26679;50.872;4.332;2022-11-27T13:57:53;9.60;99.90
39665;DHT22;26679;50.872;4.332;2022-11-27T14:00:29;10.30;99.90
39665;DHT22;26679;50.872;4.332;2022-11-27T14:02:55;9.60;99.90
39665;DHT22;26679;50.872;4.332;2022-11-27T14:05:32;9.60;99.90
39665;DHT22;26679;50.872;4.332;2022-11-27T14:07:58;9.80;99.90
39665;DHT22;26679;50.872;4.332;2022-11-27T14:10:25;10.20;99.90
39665;DHT22;26679;50.872;4.332;2022-11-27T14:12:55;9.80;99.90
39665;DHT22;26679;50.872;4.332;2022-11-27T14:15:30;10.00;99.90
39665;DHT22;26679;50.872;4.332;2022-11-27T14:20:37;9.60;99.90
39665;DHT22;26679;50.872;4.332;2022-11-27T14:23:09;9.90;99.90
39665;DHT22;26679;50.872;4.332;2022-11-27T14:25:35;9.70;99.90
39665;DHT22;26679;50.872;4.332;2022-11-27T14:30:49;8.70;99.90
39665;DHT22;26679;50.872;4.332;2022-11-27T14:33:22;8.40;99.90
39665;DHT22;26679;50.872;4.332;2022-11-27T14:35:52;9.50;99.90
39665;DHT22;26679;50.872;4.332;2022-11-27T14:38:22;9.40;99.90
39665;DHT22;26679;50.872;4.332;2022-11-27T14:40:48;10.30;99.90
39665;DHT22;26679;50.872;4.332;2022-11-27T14:43:16;9.60;99.90
39665;DHT22;26679;50.872;4.332;2022-11-27T14:45:46;9.70;99.90
39665;DHT22;26679;50.872;4.332;2022-11-27T14:48:18;9.80;99.90
39665;DHT22;26679;50.872;4.332;2022-11-27T14:50:44;9.80;99.90
39665;DHT22;26679;50.872;4.332;2022-11-27T14:53:10;9.70;99.90
39665;DHT22;26679;50.872;4.332;2022-11-27T14:55:38;8.20;99.90
39665;DHT22;26679;50.872;4.332;2022-11-27T14:58:04;10.10;99.90
39665;DHT22;26679;50.872;4.332;2022-11-27T15:00:30;9.60;99.90
39665;DHT22;26679;50.872;4.332;2022-11-27T15:03:07;9.60;99.90
39665;DHT22;26679;50.872;4.332;2022-11-27T15:05:33;9.10;99.90
39665;DHT22;26679;50.872;4.332;2022-11-27T15:08:01;10.80;99.90
39665;DHT22;26679;50.872;4.332;2022-11-27T15:10:31;9.50;99.90
39665;DHT22;26679;50.872;4.332;2022-11-27T15:12:58;9.40;99.90
39665;DHT22;26679;50.872;4.332;2022-11-27T15:15:26;8.30;99.90
39665;DHT22;26679;50.872;4.332;2022-11-27T15:17:56;9.30;99.90
39665;DHT22;26679;50.872;4.332;2022-11-27T15:22:59;9.30;99.90
39665;DHT22;26679;50.872;4.332;2022-11-27T15:25:29;9.30;99.90
39665;DHT22;26679;50.872;4.332;2022-11-27T15:27:57;9.40;99.90
39665;DHT22;26679;50.872;4.332;2022-11-27T15:30:22;9.20;99.90
39665;DHT22;26679;50.872;4.332;2022-11-27T15:32:49;9.20;99.90
39665;DHT22;26679;50.872;4.332;2022-11-27T15:40:29;9.00;99.90
39665;DHT22;26679;50.872;4.332;2022-11-27T15:42:55;9.00;99.90
39665;DHT22;26679;50.872;4.332;2022-11-27T15:45:21;9.00;99.90
39665;DHT22;26679;50.872;4.332;2022-11-27T15:47:46;9.00;99.90
39665;DHT22;26679;50.872;4.332;2022-11-27T15:50:13;9.60;99.90
39665;DHT22;26679;50.872;4.332;2022-11-27T15:57:49;8.90;99.90
39665;DHT22;26679;50.872;4.332;2022-11-27T16:00:14;10.10;99.90
39665;DHT22;26679;50.872;4.332;2022-11-27T16:02:40;8.80;99.90
39665;DHT22;26679;50.872;4.332;2022-11-27T16:49:12;8.70;99.90
39665;DHT22;26679;50.872;4.332;2022-11-27T16:54:13;8.60;99.90
39665;DHT22;26679;50.872;4.332;2022-11-27T16:56:39;9.50;99.90
39665;DHT22;26679;50.872;4.332;2022-11-27T17:09:13;8.30;99.90
39665;DHT22;26679;50.872;4.332;2022-11-27T17:11:43;8.30;99.90
39665;DHT22;26679;50.872;4.332;2022-11-27T17:14:09;8.40;99.90
39665;DHT22;26679;50.872;4.332;2022-11-27T17:16:35;8.40;99.90
39665;DHT22;26679;50.872;4.332;2022-11-27T17:21:38;8.40;99.90
39665;DHT22;26679;50.872;4.332;2022-11-27T17:24:05;9.40;99.90
39665;DHT22;26679;50.872;4.332;2022-11-27T17:26:32;8.30;99.90
39665;DHT22;26679;50.872;4.332;2022-11-27T17:28:58;10.10;99.90
39665;DHT22;26679;50.872;4.332;2022-11-27T17:31:28;10.10;99.90
39665;DHT22;26679;50.872;4.332;2022-11-27T17:33:56;8.40;99.90
39665;DHT22;26679;50.872;4.332;2022-11-27T17:36:23;9.90;99.90
39665;DHT22;26679;50.872;4.332;2022-11-27T17:38:49;8.40;99.90
39665;DHT22;26679;50.872;4.332;2022-11-27T17:41:16;7.10;99.90
39665;DHT22;26679;50.872;4.332;2022-11-27T17:43:42;8.90;99.90
39665;DHT22;26679;50.872;4.332;2022-11-27T17:46:24;8.30;99.90
39665;DHT22;26679;50.872;4.332;2022-11-27T17:48:57;7.00;99.90
39665;DHT22;26679;50.872;4.332;2022-11-27T17:51:28;8.30;99.90
39665;DHT22;26679;50.872;4.332;2022-11-27T17:54:00;7.60;99.90
39665;DHT22;26679;50.872;4.332;2022-11-27T17:56:29;8.30;99.90
39665;DHT22;26679;50.872;4.332;2022-11-27T18:09:11;8.50;99.90
39665;DHT22;26679;50.872;4.332;2022-11-27T18:11:37;8.50;99.90
39665;DHT22;26679;50.872;4.332;2022-11-27T18:14:04;7.50;99.90
39665;DHT22;26679;50.872;4.332;2022-11-27T18:16:41;8.40;99.90
39665;DHT22;26679;50.872;4.332;2022-11-27T18:19:09;8.80;99.90
39665;DHT22;26679;50.872;4.332;2022-11-27T18:21:40;8.90;99.90
39665;DHT22;26679;50.872;4.332;2022-11-27T18:24:23;8.70;99.90
39665;DHT22;26679;50.872;4.332;2022-11-27T18:26:50;8.70;99.90
39665;DHT22;26679;50.872;4.332;2022-11-27T19:42:09;8.80;99.90
39665;DHT22;26679;50.872;4.332;2022-11-27T19:44:37;8.70;99.90
39665;DHT22;26679;50.872;4.332;2022-11-27T19:47:03;8.50;99.90
39665;DHT22;26679;50.872;4.332;2022-11-27T19:49:29;8.90;99.90
39665;DHT22;26679;50.872;4.332;2022-11-27T19:51:55;8.90;99.90
39665;DHT22;26679;50.872;4.332;2022-11-27T19:54:21;9.00;99.90
39665;DHT22;26679;50.872;4.332;2022-11-27T19:56:47;8.80;99.90
39665;DHT22;26679;50.872;4.332;2022-11-27T19:59:13;8.90;99.90
39665;DHT22;26679;50.872;4.332;2022-11-27T20:01:38;9.00;99.90
39665;DHT22;26679;50.872;4.332;2022-11-27T20:04:10;9.20;99.90
39665;DHT22;26679;50.872;4.332;2022-11-27T20:06:37;9.20;99.90
39665;DHT22;26679;50.872;4.332;2022-11-27T20:09:07;9.50;99.90
39665;DHT22;26679;50.872;4.332;2022-11-27T20:11:33;9.30;99.90
39665;DHT22;26679;50.872;4.332;2022-11-27T20:14:03;8.10;99.90
39665;DHT22;26679;50.872;4.332;2022-11-27T20:16:28;9.80;99.90
39665;DHT22;26679;50.872;4.332;2022-11-27T20:18:55;9.40;99.90
39665;DHT22;26679;50.872;4.332;2022-11-27T20:21:26;9.30;99.90
39665;DHT22;26679;50.872;4.332;2022-11-27T20:26:32;9.60;99.90
39665;DHT22;26679;50.872;4.332;2022-11-27T20:28:59;9.70;99.90
39665;DHT22;26679;50.872;4.332;2022-11-27T21:46:48;10.00;99.90
39665;DHT22;26679;50.872;4.332;2022-11-27T21:49:14;10.00;99.90
39665;DHT22;26679;50.872;4.332;2022-11-27T21:56:51;10.20;99.90
39665;DHT22;26679;50.872;4.332;2022-11-27T21:59:17;10.40;99.90
39665;DHT22;26679;50.872;4.332;2022-11-27T22:01:43;10.50;99.90
39665;DHT22;26679;50.872;4.332;2022-11-27T22:22:17;10.80;99.90
39665;DHT22;26679;50.872;4.332;2022-11-27T22:24:43;10.60;99.90
39665;DHT22;26679;50.872;4.332;2022-11-27T22:27:12;10.60;99.90
39665;DHT22;26679;50.872;4.332;2022-11-27T22:29:38;10.60;99.90
39665;DHT22;26679;50.872;4.332;2022-11-27T22:32:03;10.60;99.90
39665;DHT22;26679;50.872;4.332;2022-11-27T22:34:29;10.60;99.90
39665;DHT22;26679;50.872;4.332;2022-11-27T22:36:54;10.60;99.90
39665;DHT22;26679;50.872;4.332;2022-11-27T22:39:20;10.70;99.90
39665;DHT22;26679;50.872;4.332;2022-11-27T22:41:46;10.70;99.90
39665;DHT22;26679;50.872;4.332;2022-11-27T22:44:15;10.80;99.90
39665;DHT22;26679;50.872;4.332;2022-11-27T22:46:42;10.60;99.90
39665;DHT22;26679;50.872;4.332;2022-11-27T22:49:08;10.70;99.90
39665;DHT22;26679;50.872;4.332;2022-11-27T22:51:34;10.70;99.90
39665;DHT22;26679;50.872;4.332;2022-11-27T22:54:00;10.70;99.90
39665;DHT22;26679;50.872;4.332;2022-11-27T22:56:26;10.70;99.90
39665;DHT22;26679;50.872;4.332;2022-11-27T22:58:52;10.70;99.90
39665;DHT22;26679;50.872;4.332;2022-11-27T23:01:21;10.60;99.90
39665;DHT22;26679;50.872;4.332;2022-11-27T23:03:47;10.60;99.90
39665;DHT22;26679;50.872;4.332;2022-11-27T23:06:14;10.50;99.90
39665;DHT22;26679;50.872;4.332;2022-11-27T23:08:41;10.40;99.90
39665;DHT22;26679;50.872;4.332;2022-11-27T23:11:07;10.40;99.90
39665;DHT22;26679;50.872;4.332;2022-11-27T23:13:32;10.30;99.90
39665;DHT22;26679;50.872;4.332;2022-11-27T23:16:02;10.20;99.90
39665;DHT22;26679;50.872;4.332;2022-11-27T23:18:28;10.10;99.90
39665;DHT22;26679;50.872;4.332;2022-11-27T23:20:53;10.00;99.90
39665;DHT22;26679;50.872;4.332;2022-11-27T23:23:19;9.80;99.90
39665;DHT22;26679;50.872;4.332;2022-11-27T23:25:44;9.80;99.90
39665;DHT22;26679;50.872;4.332;2022-11-27T23:28:10;11.50;99.90
39665;DHT22;26679;50.872;4.332;2022-11-27T23:30:35;9.60;99.90
39665;DHT22;26679;50.872;4.332;2022-11-27T23:33:01;9.60;99.90
39665;DHT22;26679;50.872;4.332;2022-11-27T23:35:26;9.60;99.90
39665;DHT22;26679;50.872;4.332;2022-11-27T23:37:52;9.60;99.90
39665;DHT22;26679;50.872;4.332;2022-11-27T23:40:18;9.50;99.90
39665;DHT22;26679;50.872;4.332;2022-11-27T23:42:43;9.50;99.90
39665;DHT22;26679;50.872;4.332;2022-11-27T23:45:09;9.40;99.90